Sand Lake, Michigan
Current Conditions -  °F | °C
As of 5:11 AM on Tuesday 27 Jan 2015 (Local Time) from KFFX Reporting Station
Overcast Overcast  
Wind Chill: 11°   Ceiling: 7500
Heat Index: 18°   Visibility: 10mi
Dew Point:   Wind: 5mph
Humidity: 68%   Direction: 70°ENE
Pressure: 30.03"   Gusts: NA
Location:  43.29°N, 85.52°W
Report Text: KFFX 271011Z AUTO 07004KT 10SM OVC075 M08/M13 A3003 RMK AO2 T10771126
Loading
Personal Weather Stations






























Interactive Weather Map New forecast layout! Learn more

10-Day Weather Forecast

Advertisements
Track Severe Weather on mobile